Time;durP1;ratioP1;P1;durP2;ratioP2;P2;SDS_P1;SDS_P2;PMS_P1;PMS_P2;Temp;Humidity;BMP_temperature;BMP_pressure;BME280_temperature;BME280_humidity;BME280_pressure;Samples;Min_cycle;Max_cycle;Signal;HPM_P1;HPM_P2
2023/12/24 00:01:32;;;;;;;50.25;45.28;;;;;;;;;;4147879;28;20042;-62
2023/12/24 00:03:36;;;;;;;51.03;45.55;;;;;;;;;;4148198;28;20076;-62
2023/12/24 00:05:38;;;;;;;51.47;46.42;;;;;;;;;;4148214;28;20046;-62
2023/12/24 00:07:40;;;;;;;49.22;44.28;;;;;;;;;;4148509;28;20072;-62
2023/12/24 00:09:42;;;;;;;48.13;42.95;;;;;;;;;;4148113;28;20054;-62
2023/12/24 00:11:43;;;;;;;43.45;38.05;;;;;;;;;;4148235;28;20048;-62
2023/12/24 00:13:45;;;;;;;50.33;45.30;;;;;;;;;;4138852;28;20046;-62
2023/12/24 00:15:46;;;;;;;53.33;47.78;;;;;;;;;;4114647;28;20045;-61
2023/12/24 00:17:48;;;;;;;48.40;42.35;;;;;;;;;;4131890;28;20115;-62
2023/12/24 00:19:51;;;;;;;48.65;43.83;;;;;;;;;;4131431;28;20038;-62
2023/12/24 00:21:53;;;;;;;40.70;36.67;;;;;;;;;;4131762;28;20069;-62
2023/12/24 00:23:55;;;;;;;40.53;37.13;;;;;;;;;;4131728;28;20065;-62
2023/12/24 00:25:56;;;;;;;53.30;46.72;;;;;;;;;;4131898;28;20495;-62
2023/12/24 00:28:01;;;;;;;49.33;45.10;;;;;;;;;;4131651;28;20080;-62
2023/12/24 00:30:03;;;;;;;44.85;41.05;;;;;;;;;;4131706;28;20046;-62
2023/12/24 00:32:04;;;;;;;49.13;44.30;;;;;;;;;;4131989;28;20545;-62
2023/12/24 00:34:06;;;;;;;48.83;43.70;;;;;;;;;;4131719;28;20498;-62
2023/12/24 00:36:08;;;;;;;51.35;45.95;;;;;;;;;;4127499;28;20130;-62
2023/12/24 00:38:09;;;;;;;40.88;37.10;;;;;;;;;;4115531;28;20097;-62
2023/12/24 00:40:11;;;;;;;40.73;36.73;;;;;;;;;;4115560;28;20037;-62
2023/12/24 00:42:12;;;;;;;40.03;36.03;;;;;;;;;;4115564;28;20690;-62
2023/12/24 00:44:14;;;;;;;40.43;36.70;;;;;;;;;;4115530;28;20034;-62
2023/12/24 00:46:16;;;;;;;41.75;37.67;;;;;;;;;;4115486;28;20041;-62
2023/12/24 00:48:17;;;;;;;48.17;43.63;;;;;;;;;;4124647;28;20148;-62
2023/12/24 00:50:19;;;;;;;47.10;42.40;;;;;;;;;;4131516;28;20421;-62
2023/12/24 00:52:21;;;;;;;50.10;45.87;;;;;;;;;;4136927;28;20038;-62
2023/12/24 00:54:23;;;;;;;53.88;48.17;;;;;;;;;;4147541;28;20041;-62
2023/12/24 00:56:24;;;;;;;53.78;48.03;;;;;;;;;;4147746;28;20064;-62
2023/12/24 00:58:26;;;;;;;56.33;50.53;;;;;;;;;;4147770;28;20073;-62
2023/12/24 01:00:28;;;;;;;58.25;49.97;;;;;;;;;;4147412;28;20116;-62
2023/12/24 01:02:29;;;;;;;56.92;50.97;;;;;;;;;;4147434;28;20057;-62
2023/12/24 01:04:31;;;;;;;59.17;50.70;;;;;;;;;;4147645;28;20136;-62
2023/12/24 01:06:33;;;;;;;48.13;43.17;;;;;;;;;;4147650;28;20042;-62
2023/12/24 01:08:34;;;;;;;43.15;39.13;;;;;;;;;;4147222;28;20288;-62
2023/12/24 01:10:36;;;;;;;41.20;37.43;;;;;;;;;;4133050;28;20038;-62
2023/12/24 01:12:38;;;;;;;37.43;34.07;;;;;;;;;;4131607;28;20046;-61
2023/12/24 01:14:39;;;;;;;36.07;32.33;;;;;;;;;;4131270;28;20104;-62
2023/12/24 01:16:41;;;;;;;41.25;37.45;;;;;;;;;;4131269;28;20038;-62
2023/12/24 01:18:43;;;;;;;48.47;43.33;;;;;;;;;;4131302;28;20047;-62
2023/12/24 01:20:45;;;;;;;40.75;37.20;;;;;;;;;;4131387;28;20121;-62
2023/12/24 01:22:46;;;;;;;39.35;35.85;;;;;;;;;;4131171;28;20125;-62
2023/12/24 01:24:48;;;;;;;38.95;35.67;;;;;;;;;;4131463;28;20053;-62
2023/12/24 01:26:49;;;;;;;40.67;37.08;;;;;;;;;;4131439;28;20374;-62
2023/12/24 01:28:51;;;;;;;39.65;36.10;;;;;;;;;;4131187;28;20062;-62
2023/12/24 01:30:52;;;;;;;39.80;35.97;;;;;;;;;;4131738;28;20109;-62
2023/12/24 01:32:54;;;;;;;36.55;33.47;;;;;;;;;;4125971;28;20038;-62
2023/12/24 01:34:57;;;;;;;35.10;32.20;;;;;;;;;;4118101;28;20458;-62
2023/12/24 01:36:59;;;;;;;33.67;31.50;;;;;;;;;;4118237;28;20125;-62
2023/12/24 01:39:01;;;;;;;56.83;48.63;;;;;;;;;;4118353;28;20053;-62
2023/12/24 01:41:02;;;;;;;71.25;53.58;;;;;;;;;;4118263;28;20503;-62
2023/12/24 01:43:04;;;;;;;72.78;56.42;;;;;;;;;;4118059;28;20039;-62
2023/12/24 01:45:06;;;;;;;55.33;49.13;;;;;;;;;;4131679;28;20050;-62
2023/12/24 01:47:07;;;;;;;63.27;51.30;;;;;;;;;;4134186;28;20129;-62
2023/12/24 01:49:12;;;;;;;54.07;48.53;;;;;;;;;;4134043;28;20049;-62
2023/12/24 01:51:13;;;;;;;50.17;45.75;;;;;;;;;;4133852;28;20645;-62
2023/12/24 01:53:16;;;;;;;47.87;43.50;;;;;;;;;;4146769;28;20105;-62
2023/12/24 01:55:19;;;;;;;47.95;43.08;;;;;;;;;;4150071;28;20375;-62
2023/12/24 01:57:20;;;;;;;45.63;41.67;;;;;;;;;;4150140;28;20044;-61
2023/12/24 01:59:22;;;;;;;47.15;42.70;;;;;;;;;;4149291;28;20038;-62
2023/12/24 02:01:24;;;;;;;45.35;40.88;;;;;;;;;;4150055;28;20085;-62
2023/12/24 02:03:25;;;;;;;43.25;39.10;;;;;;;;;;4164331;22;20046;-62
2023/12/24 02:05:27;;;;;;;46.03;41.93;;;;;;;;;;4150074;28;20104;-64
2023/12/24 02:07:31;;;;;;;41.85;37.50;;;;;;;;;;4150189;28;20509;-64
2023/12/24 02:09:33;;;;;;;47.63;42.67;;;;;;;;;;4163133;28;20072;-64
2023/12/24 02:11:34;;;;;;;47.00;42.58;;;;;;;;;;4166619;28;20428;-64
2023/12/24 02:13:37;;;;;;;43.72;39.55;;;;;;;;;;4134210;28;20050;-64
2023/12/24 02:15:39;;;;;;;38.40;34.77;;;;;;;;;;4150105;28;20038;-64
2023/12/24 02:17:42;;;;;;;35.08;32.15;;;;;;;;;;4150277;28;20291;-64
2023/12/24 02:19:44;;;;;;;38.65;35.80;;;;;;;;;;4149936;28;20120;-64
2023/12/24 02:21:46;;;;;;;41.33;37.77;;;;;;;;;;4151774;28;20548;-64
2023/12/24 02:23:48;;;;;;;41.20;37.63;;;;;;;;;;4166193;28;20444;-64
2023/12/24 02:25:50;;;;;;;41.23;37.07;;;;;;;;;;4166412;28;20041;-64
2023/12/24 02:27:52;;;;;;;;;;;;;;;;;;4166632;28;20049;-64
2023/12/24 02:29:56;;;;;;;37.95;34.60;;;;;;;;;;4150307;28;19929;-64
2023/12/24 02:32:12;;;;;;;37.08;34.17;;;;;;;;;;4148687;28;20085;-64
2023/12/24 02:34:16;;;;;;;38.95;36.05;;;;;;;;;;4149937;28;20057;-64
2023/12/24 02:36:19;;;;;;;39.03;35.58;;;;;;;;;;4149618;28;20046;-64
2023/12/24 02:38:21;;;;;;;38.70;35.55;;;;;;;;;;4149922;28;20112;-64
2023/12/24 02:40:23;;;;;;;39.17;35.58;;;;;;;;;;4149777;28;20049;-64
2023/12/24 02:42:25;;;;;;;34.55;31.50;;;;;;;;;;4149781;28;20092;-64
2023/12/24 02:44:26;;;;;;;35.97;33.17;;;;;;;;;;4149704;28;20038;-64
2023/12/24 02:46:28;;;;;;;35.87;32.90;;;;;;;;;;4149488;28;20101;-64
2023/12/24 02:48:30;;;;;;;36.38;33.13;;;;;;;;;;4149697;28;20293;-64
2023/12/24 02:50:31;;;;;;;37.63;34.97;;;;;;;;;;4149354;28;20478;-64
2023/12/24 02:52:33;;;;;;;33.83;31.03;;;;;;;;;;4156441;28;20346;-64
2023/12/24 02:54:35;;;;;;;39.67;36.15;;;;;;;;;;4165743;28;20838;-63
2023/12/24 02:56:36;;;;;;;38.08;34.95;;;;;;;;;;4165716;28;20048;-63
2023/12/24 02:58:38;;;;;;;35.15;32.45;;;;;;;;;;4165176;28;20044;-63
2023/12/24 03:00:40;;;;;;;37.25;34.42;;;;;;;;;;4165008;28;20060;-64
2023/12/24 03:02:42;;;;;;;37.25;34.17;;;;;;;;;;4164506;28;20045;-63
2023/12/24 03:04:44;;;;;;;34.55;31.88;;;;;;;;;;4163914;28;20045;-63
2023/12/24 03:06:45;;;;;;;35.85;33.05;;;;;;;;;;4150469;28;20046;-64
2023/12/24 03:08:47;;;;;;;37.30;34.45;;;;;;;;;;4148696;28;20038;-64
2023/12/24 03:10:49;;;;;;;40.20;36.10;;;;;;;;;;4147504;28;20046;-64
2023/12/24 03:12:50;;;;;;;38.03;35.60;;;;;;;;;;4148228;28;20125;-63
2023/12/24 03:14:52;;;;;;;38.58;35.60;;;;;;;;;;4130077;28;20054;-63
2023/12/24 03:16:55;;;;;;;35.47;32.63;;;;;;;;;;4148015;28;20161;-63
2023/12/24 03:18:56;;;;;;;38.72;35.75;;;;;;;;;;4148884;28;20652;-63
2023/12/24 03:21:00;;;;;;;41.10;38.20;;;;;;;;;;4149165;28;20069;-63
2023/12/24 03:23:02;;;;;;;42.53;39.08;;;;;;;;;;4150633;28;20352;-63
2023/12/24 03:25:04;;;;;;;42.93;38.87;;;;;;;;;;4148855;28;20088;-62
2023/12/24 03:27:05;;;;;;;46.03;41.58;;;;;;;;;;4148103;28;20120;-63
2023/12/24 03:29:09;;;;;;;39.28;36.30;;;;;;;;;;4149295;28;20133;-63
2023/12/24 03:31:11;;;;;;;38.05;35.13;;;;;;;;;;4148801;28;20046;-63
2023/12/24 03:33:17;;;;;;;40.10;37.05;;;;;;;;;;4148833;28;20207;-62
2023/12/24 03:35:19;;;;;;;41.20;37.58;;;;;;;;;;4148541;28;20125;-63
2023/12/24 03:37:20;;;;;;;35.88;33.17;;;;;;;;;;4148890;28;20145;-63
2023/12/24 03:39:22;;;;;;;39.58;36.60;;;;;;;;;;4148916;28;20042;-63
2023/12/24 03:41:23;;;;;;;40.55;37.22;;;;;;;;;;4148929;28;20441;-63
2023/12/24 03:43:25;;;;;;;40.20;36.55;;;;;;;;;;4148954;28;20041;-63
2023/12/24 03:45:27;;;;;;;43.45;40.03;;;;;;;;;;4148676;28;20034;-63
2023/12/24 03:47:28;;;;;;;38.00;34.90;;;;;;;;;;4148635;28;20552;-63
2023/12/24 03:49:30;;;;;;;42.37;38.60;;;;;;;;;;4148519;28;20048;-63
2023/12/24 03:51:31;;;;;;;39.53;36.78;;;;;;;;;;4148382;28;20383;-62
2023/12/24 03:53:33;;;;;;;42.75;39.63;;;;;;;;;;4163185;28;20056;-62
2023/12/24 03:55:35;;;;;;;45.60;41.88;;;;;;;;;;4164658;28;20575;-63
2023/12/24 03:57:36;;;;;;;43.17;39.47;;;;;;;;;;4164741;28;20041;-63
2023/12/24 03:59:38;;;;;;;38.37;35.00;;;;;;;;;;4165067;28;20546;-63
2023/12/24 04:01:40;;;;;;;39.58;36.70;;;;;;;;;;4161591;28;20381;-63
2023/12/24 04:03:41;;;;;;;42.78;39.03;;;;;;;;;;4148116;28;20053;-63
2023/12/24 04:05:43;;;;;;;36.17;33.63;;;;;;;;;;4148682;28;20120;-63
2023/12/24 04:07:45;;;;;;;36.70;34.20;;;;;;;;;;4148290;28;20497;-62
2023/12/24 04:09:46;;;;;;;36.90;34.17;;;;;;;;;;4163359;28;20045;-63
2023/12/24 04:11:48;;;;;;;38.95;36.00;;;;;;;;;;4164605;28;20132;-63
2023/12/24 04:13:50;;;;;;;41.50;37.70;;;;;;;;;;4164457;28;20488;-62
2023/12/24 04:15:52;;;;;;;37.85;35.35;;;;;;;;;;4164439;28;20041;-63
2023/12/24 04:17:53;;;;;;;40.00;37.05;;;;;;;;;;4164540;28;20037;-62
2023/12/24 04:19:55;;;;;;;38.22;35.40;;;;;;;;;;4164608;28;20041;-63
2023/12/24 04:21:57;;;;;;;38.65;35.60;;;;;;;;;;4153696;28;20527;-63
2023/12/24 04:24:00;;;;;;;36.33;33.80;;;;;;;;;;4164624;28;20037;-63
2023/12/24 04:26:01;;;;;;;38.97;35.75;;;;;;;;;;4164469;28;20461;-63
2023/12/24 04:28:03;;;;;;;37.17;34.27;;;;;;;;;;4164379;28;20041;-64
2023/12/24 04:30:05;;;;;;;34.83;32.03;;;;;;;;;;4164336;28;20320;-64
2023/12/24 04:32:07;;;;;;;36.85;33.83;;;;;;;;;;4153787;28;20128;-64
2023/12/24 04:34:08;;;;;;;38.97;35.90;;;;;;;;;;4147856;28;20133;-64
2023/12/24 04:36:16;;;;;;;37.50;34.80;;;;;;;;;;4148130;28;20378;-64
2023/12/24 04:38:18;;;;;;;37.97;35.08;;;;;;;;;;4147900;28;20073;-64
2023/12/24 04:40:19;;;;;;;35.23;32.20;;;;;;;;;;4148139;28;20456;-64
2023/12/24 04:42:21;;;;;;;38.35;34.38;;;;;;;;;;4140823;28;20285;-64
2023/12/24 04:44:23;;;;;;;40.33;36.83;;;;;;;;;;4131740;28;20046;-64
2023/12/24 04:46:24;;;;;;;34.97;32.63;;;;;;;;;;4130326;28;20057;-64
2023/12/24 04:48:28;;;;;;;38.75;35.95;;;;;;;;;;4131692;28;20042;-64
2023/12/24 04:50:30;;;;;;;40.20;36.65;;;;;;;;;;4131562;28;20046;-64
2023/12/24 04:52:37;;;;;;;40.67;36.92;;;;;;;;;;4145477;28;20045;-64
2023/12/24 04:54:38;;;;;;;41.03;37.80;;;;;;;;;;4164133;28;20455;-64
2023/12/24 04:56:40;;;;;;;41.95;37.88;;;;;;;;;;4163754;28;20115;-64
2023/12/24 04:58:41;;;;;;;42.58;39.10;;;;;;;;;;4155000;28;20038;-64
2023/12/24 05:00:43;;;;;;;36.92;33.83;;;;;;;;;;4147365;28;20038;-64
2023/12/24 05:02:45;;;;;;;43.45;39.38;;;;;;;;;;4148207;28;20041;-63
2023/12/24 05:04:48;;;;;;;43.03;37.90;;;;;;;;;;4147599;28;20375;-64
2023/12/24 05:06:50;;;;;;;41.17;37.40;;;;;;;;;;4149707;28;20052;-64
2023/12/24 05:08:52;;;;;;;40.22;36.58;;;;;;;;;;4163668;28;20034;-64
2023/12/24 05:10:53;;;;;;;43.25;39.03;;;;;;;;;;4150844;28;20056;-64
2023/12/24 05:12:55;;;;;;;37.72;34.08;;;;;;;;;;4151136;28;20038;-64
2023/12/24 05:14:59;;;;;;;40.40;37.40;;;;;;;;;;4150927;28;20401;-63
2023/12/24 05:17:02;;;;;;;43.85;37.80;;;;;;;;;;4150732;28;20300;-63
2023/12/24 05:19:03;;;;;;;40.67;36.35;;;;;;;;;;4150809;28;20073;-63
2023/12/24 05:21:05;;;;;;;40.83;36.75;;;;;;;;;;4150817;28;20048;-63
2023/12/24 05:23:07;;;;;;;40.05;36.25;;;;;;;;;;4163514;28;20040;-64
2023/12/24 05:25:08;;;;;;;42.15;38.22;;;;;;;;;;4167122;28;20077;-64
2023/12/24 05:27:10;;;;;;;36.70;33.70;;;;;;;;;;4167088;28;20136;-64
2023/12/24 05:29:12;;;;;;;39.80;36.53;;;;;;;;;;4160493;28;20350;-63
2023/12/24 05:31:14;;;;;;;37.83;35.00;;;;;;;;;;4133169;28;20137;-63
2023/12/24 05:33:15;;;;;;;41.78;38.35;;;;;;;;;;4150772;28;20053;-63
2023/12/24 05:35:17;;;;;;;38.25;34.65;;;;;;;;;;4150792;28;20042;-63
2023/12/24 05:37:19;;;;;;;39.58;36.10;;;;;;;;;;4150734;28;20040;-64
2023/12/24 05:39:21;;;;;;;40.78;37.15;;;;;;;;;;4150513;28;20100;-64
2023/12/24 05:41:23;;;;;;;44.05;39.92;;;;;;;;;;4150548;28;20041;-64
2023/12/24 05:43:30;;;;;;;42.72;38.67;;;;;;;;;;4150678;28;20123;-63
2023/12/24 05:45:33;;;;;;;40.55;36.55;;;;;;;;;;4150359;28;20451;-63
2023/12/24 05:47:35;;;;;;;39.97;36.33;;;;;;;;;;4150528;28;20076;-64
2023/12/24 05:49:37;;;;;;;42.10;38.22;;;;;;;;;;4150642;28;20157;-63
2023/12/24 05:51:39;;;;;;;42.70;35.13;;;;;;;;;;4150230;28;20046;-63
2023/12/24 05:53:40;;;;;;;41.67;37.20;;;;;;;;;;4166876;28;20095;-63
2023/12/24 05:55:42;;;;;;;39.20;35.07;;;;;;;;;;4151603;28;20125;-63
2023/12/24 05:57:44;;;;;;;48.40;34.10;;;;;;;;;;4150137;28;20034;-63
2023/12/24 05:59:46;;;;;;;41.35;37.00;;;;;;;;;;4150257;28;20034;-63
2023/12/24 06:01:47;;;;;;;41.92;37.75;;;;;;;;;;4150060;28;20038;-63
2023/12/24 06:03:49;;;;;;;40.83;36.85;;;;;;;;;;4149911;28;20506;-64
2023/12/24 06:05:51;;;;;;;40.70;36.80;;;;;;;;;;4150126;28;20128;-64
2023/12/24 06:07:53;;;;;;;37.47;35.03;;;;;;;;;;4150339;28;20512;-63
2023/12/24 06:09:55;;;;;;;39.92;37.08;;;;;;;;;;4165960;28;20400;-63
2023/12/24 06:11:56;;;;;;;36.10;33.58;;;;;;;;;;4162555;28;20043;-63
2023/12/24 06:13:58;;;;;;;36.03;32.83;;;;;;;;;;4143900;28;20390;-63
2023/12/24 06:16:00;;;;;;;36.77;33.50;;;;;;;;;;4138761;28;20060;-63
2023/12/24 06:18:01;;;;;;;31.15;28.75;;;;;;;;;;4149211;28;20277;-63
2023/12/24 06:20:04;;;;;;;33.05;30.25;;;;;;;;;;4148827;28;20096;-64
2023/12/24 06:22:09;;;;;;;34.55;31.50;;;;;;;;;;4154423;28;20037;-64
2023/12/24 06:24:10;;;;;;;34.70;32.40;;;;;;;;;;4151627;28;20038;-64
2023/12/24 06:26:12;;;;;;;38.50;34.80;;;;;;;;;;4143452;28;20147;-63
2023/12/24 06:28:16;;;;;;;33.00;30.77;;;;;;;;;;4147977;28;20045;-63
2023/12/24 06:30:19;;;;;;;32.87;30.00;;;;;;;;;;4149591;28;20030;-63
2023/12/24 06:32:21;;;;;;;36.17;32.67;;;;;;;;;;4149835;28;20046;-63
2023/12/24 06:34:26;;;;;;;35.67;32.83;;;;;;;;;;4142155;28;20054;-63
2023/12/24 06:36:27;;;;;;;37.70;33.93;;;;;;;;;;4143705;28;20080;-63
2023/12/24 06:38:29;;;;;;;37.78;34.25;;;;;;;;;;4149470;28;20446;-63
2023/12/24 06:40:31;;;;;;;36.47;33.05;;;;;;;;;;4132349;28;20046;-64
2023/12/24 06:42:32;;;;;;;36.60;32.22;;;;;;;;;;4149592;28;20524;-63
2023/12/24 06:44:34;;;;;;;41.87;35.80;;;;;;;;;;4149818;28;20034;-63
2023/12/24 06:46:36;;;;;;;42.40;33.17;;;;;;;;;;4149330;28;20037;-62
2023/12/24 06:48:39;;;;;;;37.38;32.53;;;;;;;;;;4149335;28;20795;-62
2023/12/24 06:50:40;;;;;;;43.60;34.17;;;;;;;;;;4149388;28;20046;-63
2023/12/24 06:52:42;;;;;;;37.80;34.03;;;;;;;;;;4156128;28;20037;-62
2023/12/24 06:54:44;;;;;;;38.33;34.67;;;;;;;;;;4149336;28;20038;-63
2023/12/24 06:56:45;;;;;;;40.22;36.00;;;;;;;;;;4148052;28;20038;-63
2023/12/24 06:58:47;;;;;;;39.23;35.73;;;;;;;;;;4132220;28;20038;-63
2023/12/24 07:00:48;;;;;;;44.58;33.88;;;;;;;;;;4148957;28;20054;-64
2023/12/24 07:02:50;;;;;;;43.50;34.97;;;;;;;;;;4148880;28;20038;-64
2023/12/24 07:04:52;;;;;;;40.97;36.67;;;;;;;;;;4149216;28;20038;-63
2023/12/24 07:06:54;;;;;;;50.97;35.72;;;;;;;;;;4149010;28;20673;-63
2023/12/24 07:08:56;;;;;;;43.17;35.47;;;;;;;;;;4151340;28;20046;-63
2023/12/24 07:10:57;;;;;;;38.53;34.53;;;;;;;;;;4146197;28;20045;-63
2023/12/24 07:12:59;;;;;;;48.93;33.10;;;;;;;;;;4147969;28;20053;-62
2023/12/24 07:15:01;;;;;;;41.72;37.28;;;;;;;;;;4144382;28;20122;-62
2023/12/24 07:17:03;;;;;;;36.90;33.40;;;;;;;;;;4146747;28;20042;-63
2023/12/24 07:19:07;;;;;;;40.42;36.38;;;;;;;;;;4145476;28;20045;-63
2023/12/24 07:21:09;;;;;;;37.33;33.95;;;;;;;;;;4145661;28;20050;-62
2023/12/24 07:23:11;;;;;;;44.25;39.22;;;;;;;;;;4161600;28;20064;-63
2023/12/24 07:25:13;;;;;;;58.13;45.87;;;;;;;;;;4164982;28;20037;-62
2023/12/24 07:27:14;;;;;;;39.27;36.27;;;;;;;;;;4165031;28;20291;-63
2023/12/24 07:29:16;;;;;;;42.97;39.22;;;;;;;;;;4164064;28;20283;-63
2023/12/24 07:31:18;;;;;;;42.78;38.97;;;;;;;;;;4164961;28;20430;-62
2023/12/24 07:33:19;;;;;;;42.33;38.70;;;;;;;;;;4165342;28;20378;-63
2023/12/24 07:35:22;;;;;;;39.67;36.38;;;;;;;;;;4165401;28;20794;-62
2023/12/24 07:37:23;;;;;;;35.03;32.60;;;;;;;;;;4147410;28;20042;-62
2023/12/24 07:39:25;;;;;;;38.53;35.70;;;;;;;;;;4165017;28;20041;-62
2023/12/24 07:41:27;;;;;;;35.67;32.67;;;;;;;;;;4164951;28;20041;-62
2023/12/24 07:43:29;;;;;;;38.30;34.33;;;;;;;;;;4147346;28;20136;-62
2023/12/24 07:45:30;;;;;;;35.97;33.20;;;;;;;;;;4164972;28;20353;-63
2023/12/24 07:47:32;;;;;;;39.10;36.13;;;;;;;;;;4155190;28;20037;-63
2023/12/24 07:49:34;;;;;;;40.93;37.67;;;;;;;;;;4148422;28;20037;-63
2023/12/24 07:51:36;;;;;;;43.20;39.13;;;;;;;;;;4148422;28;20335;-63
2023/12/24 07:53:37;;;;;;;37.47;33.80;;;;;;;;;;4164469;28;20076;-63
2023/12/24 07:55:39;;;;;;;41.75;38.17;;;;;;;;;;4165311;28;20037;-63
2023/12/24 07:57:41;;;;;;;38.90;34.92;;;;;;;;;;4147249;28;20200;-63
2023/12/24 07:59:43;;;;;;;37.23;33.57;;;;;;;;;;4164759;28;20041;-63
2023/12/24 08:01:44;;;;;;;35.97;32.47;;;;;;;;;;4164698;28;20516;-62
2023/12/24 08:03:46;;;;;;;44.33;38.13;;;;;;;;;;4164554;28;20292;-62
2023/12/24 08:05:51;;;;;;;39.50;36.13;;;;;;;;;;4163485;28;20392;-64
2023/12/24 08:07:52;;;;;;;41.42;37.17;;;;;;;;;;4148499;28;20042;-63
2023/12/24 08:09:56;;;;;;;42.50;38.53;;;;;;;;;;4163934;28;20093;-63
2023/12/24 08:11:57;;;;;;;42.70;38.75;;;;;;;;;;4164588;28;20045;-63
2023/12/24 08:13:59;;;;;;;47.92;40.80;;;;;;;;;;4164476;28;20054;-63
2023/12/24 08:16:01;;;;;;;52.67;46.33;;;;;;;;;;4164487;28;20103;-63
2023/12/24 08:18:03;;;;;;;58.20;51.77;;;;;;;;;;4157277;28;20038;-62
2023/12/24 08:20:05;;;;;;;48.80;43.92;;;;;;;;;;4147976;28;20038;-63
2023/12/24 08:22:07;;;;;;;43.72;39.28;;;;;;;;;;4151966;28;20041;-62
2023/12/24 08:24:08;;;;;;;47.83;42.63;;;;;;;;;;4132757;28;20046;-62
2023/12/24 08:26:13;;;;;;;48.80;39.35;;;;;;;;;;4148156;28;20284;-63
2023/12/24 08:28:15;;;;;;;44.95;39.00;;;;;;;;;;4148190;28;20056;-63
2023/12/24 08:30:18;;;;;;;41.73;38.00;;;;;;;;;;4147935;28;20042;-64
2023/12/24 08:32:19;;;;;;;46.03;36.10;;;;;;;;;;4147990;28;20559;-63
2023/12/24 08:34:21;;;;;;;39.40;35.33;;;;;;;;;;4146957;28;20108;-62
2023/12/24 08:36:23;;;;;;;40.22;35.55;;;;;;;;;;4130602;28;20051;-62
2023/12/24 08:38:25;;;;;;;36.88;33.30;;;;;;;;;;4147900;28;20038;-63
2023/12/24 08:40:29;;;;;;;38.70;34.93;;;;;;;;;;4147545;28;20081;-63
2023/12/24 08:42:31;;;;;;;47.40;42.53;;;;;;;;;;4147870;28;20657;-63
2023/12/24 08:44:35;;;;;;;48.80;39.17;;;;;;;;;;4147954;28;20120;-62
2023/12/24 08:46:36;;;;;;;46.83;42.28;;;;;;;;;;4147901;28;20089;-63
2023/12/24 08:48:38;;;;;;;52.97;44.50;;;;;;;;;;4147817;28;20045;-63
2023/12/24 08:50:40;;;;;;;50.90;43.03;;;;;;;;;;4147992;28;20045;-62
2023/12/24 08:52:42;;;;;;;46.93;42.20;;;;;;;;;;4151853;28;20285;-62
2023/12/24 08:54:43;;;;;;;38.60;34.53;;;;;;;;;;4147787;28;20296;-63
2023/12/24 08:56:45;;;;;;;39.97;35.88;;;;;;;;;;4146536;28;20080;-63
2023/12/24 08:58:49;;;;;;;54.05;39.90;;;;;;;;;;4128896;28;20054;-63
2023/12/24 09:00:51;;;;;;;48.63;38.97;;;;;;;;;;4147643;28;20125;-63
2023/12/24 09:02:52;;;;;;;40.70;35.93;;;;;;;;;;4147261;28;20299;-63
2023/12/24 09:04:57;;;;;;;39.58;35.55;;;;;;;;;;4147162;28;20034;-63
2023/12/24 09:06:58;;;;;;;47.35;42.17;;;;;;;;;;4147499;28;20045;-63
2023/12/24 09:09:00;;;;;;;50.45;45.25;;;;;;;;;;4156157;28;20100;-63
2023/12/24 09:11:01;;;;;;;48.87;41.10;;;;;;;;;;4148083;28;20052;-63
2023/12/24 09:13:03;;;;;;;56.20;48.33;;;;;;;;;;4147423;28;20045;-63
2023/12/24 09:15:05;;;;;;;55.88;49.92;;;;;;;;;;4147452;28;20042;-63
2023/12/24 09:17:07;;;;;;;57.67;51.25;;;;;;;;;;4147624;28;20093;-62
2023/12/24 09:19:08;;;;;;;55.47;47.00;;;;;;;;;;4147154;28;20050;-63
2023/12/24 09:21:10;;;;;;;51.17;44.85;;;;;;;;;;4147428;28;20285;-63
2023/12/24 09:23:11;;;;;;;57.90;46.93;;;;;;;;;;4152384;28;20065;-62
2023/12/24 09:25:13;;;;;;;43.07;38.87;;;;;;;;;;4146984;28;20288;-63
2023/12/24 09:27:15;;;;;;;50.17;42.13;;;;;;;;;;4147451;28;20037;-63
2023/12/24 09:29:21;;;;;;;61.13;46.67;;;;;;;;;;4146873;28;20684;-63
2023/12/24 09:31:23;;;;;;;53.67;48.08;;;;;;;;;;4146339;28;20038;-64
2023/12/24 09:33:24;;;;;;;60.55;48.03;;;;;;;;;;4147372;28;20057;-63
2023/12/24 09:35:27;;;;;;;55.80;44.70;;;;;;;;;;4146877;28;20124;-63
2023/12/24 09:37:30;;;;;;;52.20;42.65;;;;;;;;;;4147574;28;20065;-63
2023/12/24 09:39:32;;;;;;;47.85;40.50;;;;;;;;;;4145745;28;20033;-63
2023/12/24 09:41:33;;;;;;;43.15;38.63;;;;;;;;;;4147227;28;20123;-63
2023/12/24 09:43:37;;;;;;;63.20;47.70;;;;;;;;;;4147127;28;20124;-63
2023/12/24 09:45:39;;;;;;;53.15;43.55;;;;;;;;;;4147284;28;20117;-63
2023/12/24 09:47:40;;;;;;;45.13;37.03;;;;;;;;;;4147258;28;20054;-63
2023/12/24 09:49:42;;;;;;;50.03;37.00;;;;;;;;;;4147202;28;20049;-64
2023/12/24 09:51:44;;;;;;;44.20;39.50;;;;;;;;;;4147656;28;20498;-64
2023/12/24 09:53:46;;;;;;;49.42;40.22;;;;;;;;;;4155005;28;20046;-63
2023/12/24 09:55:48;;;;;;;46.53;41.78;;;;;;;;;;4150261;28;20041;-63
2023/12/24 09:57:50;;;;;;;49.40;37.60;;;;;;;;;;4150390;28;20125;-63
2023/12/24 09:59:52;;;;;;;48.58;36.22;;;;;;;;;;4150307;28;20042;-63
2023/12/24 10:01:53;;;;;;;39.35;34.35;;;;;;;;;;4149910;28;20038;-63
2023/12/24 10:03:55;;;;;;;38.38;34.55;;;;;;;;;;4149687;28;20050;-62
2023/12/24 10:06:02;;;;;;;52.55;36.90;;;;;;;;;;4149970;28;20136;-63
2023/12/24 10:08:05;;;;;;;41.40;33.10;;;;;;;;;;4150913;28;20057;-63
2023/12/24 10:10:08;;;;;;;36.58;33.40;;;;;;;;;;4158600;28;20069;-63
2023/12/24 10:12:10;;;;;;;35.47;31.77;;;;;;;;;;4149944;28;20148;-64
2023/12/24 10:14:15;;;;;;;45.67;33.50;;;;;;;;;;4149947;28;20076;-63
2023/12/24 10:16:16;;;;;;;41.20;32.03;;;;;;;;;;4149790;28;20044;-64
2023/12/24 10:18:19;;;;;;;36.05;32.33;;;;;;;;;;4149580;28;20034;-63
2023/12/24 10:20:22;;;;;;;38.60;33.20;;;;;;;;;;4149776;28;20034;-63
2023/12/24 10:22:24;;;;;;;35.97;32.33;;;;;;;;;;4156390;28;20038;-63
2023/12/24 10:24:27;;;;;;;34.58;31.35;;;;;;;;;;4149515;28;20038;-63
2023/12/24 10:26:30;;;;;;;36.30;32.70;;;;;;;;;;4148836;28;20046;-64
2023/12/24 10:28:32;;;;;;;37.03;32.67;;;;;;;;;;4149192;28;20057;-63
2023/12/24 10:30:35;;;;;;;;;;;;;;;;;;4146520;28;20042;-64
2023/12/24 10:32:36;;;;;;;40.58;34.15;;;;;;;;;;4146430;28;20020;-63
2023/12/24 10:34:39;;;;;;;46.22;32.60;;;;;;;;;;4147318;28;20045;-64
2023/12/24 10:36:41;;;;;;;38.78;34.80;;;;;;;;;;4146843;28;20044;-63
2023/12/24 10:38:44;;;;;;;38.28;34.28;;;;;;;;;;4146968;28;20514;-63
2023/12/24 10:40:45;;;;;;;;;;;;;;;;;;4149328;28;20069;-63
2023/12/24 10:42:47;;;;;;;37.85;33.85;;;;;;;;;;4148934;28;20160;-63
2023/12/24 10:44:49;;;;;;;36.10;32.10;;;;;;;;;;4148921;28;20391;-63
2023/12/24 10:46:51;;;;;;;32.13;29.33;;;;;;;;;;4144838;28;20046;-63
2023/12/24 10:48:52;;;;;;;33.38;29.73;;;;;;;;;;4146677;28;20037;-63
2023/12/24 10:50:54;;;;;;;38.60;34.47;;;;;;;;;;4147847;28;20111;-63
2023/12/24 10:52:56;;;;;;;44.97;36.85;;;;;;;;;;4147180;28;20315;-64
2023/12/24 10:54:59;;;;;;;37.33;33.87;;;;;;;;;;4145340;28;20038;-63
2023/12/24 10:57:11;;;;;;;42.35;32.25;;;;;;;;;;4147779;28;20053;-63
2023/12/24 10:59:35;;;;;;;42.72;36.13;;;;;;;;;;4143057;28;20378;-63
2023/12/24 11:01:38;;;;;;;33.92;30.30;;;;;;;;;;4143136;28;20081;-63
2023/12/24 11:03:49;;;;;;;40.90;30.45;;;;;;;;;;4147210;28;20096;-64
2023/12/24 11:05:51;;;;;;;33.60;29.65;;;;;;;;;;4144568;28;20466;-63
2023/12/24 11:07:54;;;;;;;35.00;31.33;;;;;;;;;;4148063;28;20050;-63
2023/12/24 11:09:55;;;;;;;33.20;30.05;;;;;;;;;;4145854;28;20484;-63
2023/12/24 11:11:58;;;;;;;41.13;29.83;;;;;;;;;;4145455;28;20042;-64
2023/12/24 11:14:00;;;;;;;36.08;32.47;;;;;;;;;;4142072;28;20050;-63
2023/12/24 11:16:03;;;;;;;39.73;32.00;;;;;;;;;;4146731;28;20046;-63
2023/12/24 11:18:04;;;;;;;;;;;;;;;;;;4147706;28;20284;-63
2023/12/24 11:20:18;;;;;;;47.15;29.95;;;;;;;;;;4140670;28;19929;-63
2023/12/24 11:22:22;;;;;;;32.22;29.05;;;;;;;;;;4137354;28;21106;-64
2023/12/24 11:24:24;;;;;;;34.13;30.50;;;;;;;;;;4138152;28;20046;-63
2023/12/24 11:26:30;;;;;;;35.30;28.25;;;;;;;;;;4144097;28;20041;-63
2023/12/24 11:28:36;;;;;;;35.50;29.52;;;;;;;;;;4146676;28;20044;-64
2023/12/24 11:30:50;;;;;;;43.42;30.85;;;;;;;;;;4143557;28;20041;-63
2023/12/24 11:32:52;;;;;;;49.38;32.47;;;;;;;;;;4147753;28;20073;-64
2023/12/24 11:34:55;;;;;;;41.90;33.08;;;;;;;;;;4144796;28;20621;-63
2023/12/24 11:37:03;;;;;;;34.90;31.10;;;;;;;;;;4137934;28;20041;-63
2023/12/24 11:39:07;;;;;;;37.58;33.17;;;;;;;;;;4144624;28;20120;-63
2023/12/24 11:41:12;;;;;;;43.53;33.35;;;;;;;;;;4138705;28;20056;-64
2023/12/24 11:43:16;;;;;;;32.08;28.27;;;;;;;;;;4128782;28;20544;-64
2023/12/24 11:45:23;;;;;;;32.30;28.52;;;;;;;;;;4145222;28;20030;-63
2023/12/24 11:47:25;;;;;;;37.05;28.73;;;;;;;;;;4144573;28;20040;-64
2023/12/24 11:49:27;;;;;;;28.10;25.63;;;;;;;;;;4143381;28;20041;-63
2023/12/24 11:51:31;;;;;;;30.92;28.05;;;;;;;;;;4146025;28;20296;-63
2023/12/24 11:53:33;;;;;;;36.00;27.35;;;;;;;;;;4145187;28;20120;-62